Eye Of The Wind — GWAK — position and weather

sailwx.info

Track history (hours):
 
Tides and Currents Weather Stations Pressure Air Temp Water Temp Dewpoint Dewpoint Depression Visibility Wind Speed Wind Dir Waves Ship Positions

Eye Of The Wind

Last reported at 2019-Oct-22 23:27 UTC. Time now 2019-Oct-22 23:36 UTC.
Position N 38°13' W 009°15'.

Length 33 m; draft 2.8 m.

Type: Sailing vessel. MMSI: 233789000.

Date/timePositionNaut miles runAvg speedWind from/ knotsBaromVisibWave heightAir tempDewpointWater temp
2019-Oct-22 23:27N 38°13' W 009°15'4 6.5
2019-Oct-22 22:53N 38°16' W 009°17'3 6.1
2019-Oct-22 22:28N 38°18' W 009°18'3 6.6
2019-Oct-22 22:00N 38°21' W 009°20'3 6.5
2019-Oct-22 21:30N 38°24' W 009°22'3 6.6
2019-Oct-22 21:00N 38°27' W 009°23'3 6.1
2019-Oct-22 20:30N 38°30' W 009°25'3 5.9
2019-Oct-22 20:00N 38°32' W 009°27'3 5.6
2019-Oct-22 19:30N 38°35' W 009°29'3 6.3
2019-Oct-22 19:01N 38°38' W 009°30'4 7.3
2019-Oct-22 18:30N 38°41' W 009°32'3 7.0
2019-Oct-22 18:01N 38°45' W 009°33'3 6.4
2019-Oct-22 17:31N 38°48' W 009°33'3 6.5
2019-Oct-22 17:00N 38°51' W 009°33'3 6.6
2019-Oct-22 16:30N 38°54' W 009°33'3 6.4
2019-Oct-22 16:01N 38°57' W 009°32'3 6.4
2019-Oct-22 15:31N 39°01' W 009°31'4 6.0
2019-Oct-22 14:54N 39°04' W 009°31'3 6.5
2019-Oct-22 14:30N 39°07' W 009°30'3 5.6
2019-Oct-22 14:00N 39°09' W 009°28'3 5.7
2019-Oct-22 13:29N 39°12' W 009°27'  
2019-Oct-16 13:11N 47°57' W 005°16'3 5.5
2019-Oct-16 12:42N 47°59' W 005°13'1 5.4
2019-Oct-16 12:30N 48°00' W 005°13'3 5.4
2019-Oct-16 12:00N 48°02' W 005°11'3 5.8
2019-Oct-16 11:30N 48°05' W 005°08'3 6.4
2019-Oct-16 11:00N 48°06' W 005°04'3 6.5
2019-Oct-16 10:31N 48°08' W 004°60'3 6.7
2019-Oct-16 10:00N 48°10' W 004°55'3 6.9
2019-Oct-16 09:31N 48°12' W 004°51'4 7.2
2019-Oct-16 09:00N 48°14' W 004°47'4 7.4
2019-Oct-16 08:31N 48°17' W 004°44'4 7.6
2019-Oct-16 08:01N 48°19' W 004°39'4 7.5
2019-Oct-16 07:30N 48°21' W 004°34'3 6.8
2019-Oct-16 07:00N 48°23' W 004°30'0 0.4
2019-Oct-16 06:28N 48°23' W 004°29'0 0.0
2019-Oct-16 05:58N 48°23' W 004°29'0 0.0
2019-Oct-16 05:28N 48°23' W 004°29'0 0.0
2019-Oct-16 04:58N 48°23' W 004°29'0 0.0
2019-Oct-16 04:28N 48°23' W 004°29'0 0.0
2019-Oct-16 03:58N 48°23' W 004°29'0 0.0
2019-Oct-16 03:28N 48°23' W 004°29'0 0.0
2019-Oct-16 02:58N 48°23' W 004°29'0 0.0
2019-Oct-16 02:28N 48°23' W 004°29'0 0.0
2019-Oct-16 01:58N 48°23' W 004°29'0 0.0
2019-Oct-16 01:28N 48°23' W 004°29'0 0.0
2019-Oct-16 00:58N 48°23' W 004°29'0 0.0
2019-Oct-16 00:28N 48°23' W 004°29'0 0.0
2019-Oct-15 23:58N 48°23' W 004°29'0 0.0
2019-Oct-15 23:28N 48°23' W 004°29'0 0.0
2019-Oct-15 22:58N 48°23' W 004°29'0 0.0
2019-Oct-15 22:28N 48°23' W 004°29'0 0.0
2019-Oct-15 21:58N 48°23' W 004°29'0 0.0
2019-Oct-15 21:28N 48°23' W 004°29'0 0.0
2019-Oct-15 20:58N 48°23' W 004°29'0 0.0
2019-Oct-15 20:28N 48°23' W 004°29'0 0.0
2019-Oct-15 19:58N 48°23' W 004°29'0 0.0
2019-Oct-15 19:28N 48°23' W 004°29'0 0.0
2019-Oct-15 18:58N 48°23' W 004°29'0 0.0
2019-Oct-15 18:28N 48°23' W 004°29'0 0.0
2019-Oct-15 17:58N 48°23' W 004°29'0 0.0
2019-Oct-15 17:28N 48°23' W 004°29'0 0.0
2019-Oct-15 16:58N 48°23' W 004°29'0 0.0
2019-Oct-15 16:28N 48°23' W 004°29'0 0.0
2019-Oct-15 15:58N 48°23' W 004°29'0 0.0
2019-Oct-15 15:28N 48°23' W 004°29'0 0.0
2019-Oct-15 14:58N 48°23' W 004°29'0 0.0
2019-Oct-15 14:28N 48°23' W 004°29'0 0.0
2019-Oct-15 13:58N 48°23' W 004°29'0 0.0
2019-Oct-15 13:28N 48°23' W 004°29'0 0.0
2019-Oct-15 12:58N 48°23' W 004°29'0 0.0
2019-Oct-15 12:28N 48°23' W 004°29'0 0.0
2019-Oct-15 11:58N 48°23' W 004°29'0 0.0
2019-Oct-15 11:28N 48°23' W 004°29'0 0.0
2019-Oct-15 10:58N 48°23' W 004°29'0 0.0
2019-Oct-15 10:28N 48°23' W 004°29'0 0.0
2019-Oct-15 09:58N 48°23' W 004°29'0 0.0
2019-Oct-15 09:28N 48°23' W 004°29'0 0.0
2019-Oct-15 08:58N 48°23' W 004°29'0 0.0
2019-Oct-15 08:28N 48°23' W 004°29'0 0.0
2019-Oct-15 07:58N 48°23' W 004°29'0 0.0
2019-Oct-15 07:28N 48°23' W 004°29'0 0.0
2019-Oct-15 06:58N 48°23' W 004°29'0 0.0
2019-Oct-15 06:28N 48°23' W 004°29'0 0.0
2019-Oct-15 05:58N 48°23' W 004°29'0 0.0
2019-Oct-15 05:28N 48°23' W 004°29'0 0.0
2019-Oct-15 04:58N 48°23' W 004°29'0 0.0
2019-Oct-15 04:28N 48°23' W 004°29'0 0.0
2019-Oct-15 03:58N 48°23' W 004°29'0 0.0
2019-Oct-15 03:28N 48°23' W 004°29'0 0.0
2019-Oct-15 02:58N 48°23' W 004°29'0 0.0
2019-Oct-15 02:28N 48°23' W 004°29'0 0.0
2019-Oct-15 01:58N 48°23' W 004°29'0 0.0
2019-Oct-15 01:28N 48°23' W 004°29'0 0.0
2019-Oct-15 00:58N 48°23' W 004°29'0 0.0
2019-Oct-15 00:28N 48°23' W 004°29'0 0.0
2019-Oct-14 23:55N 48°23' W 004°29'0 0.0
2019-Oct-14 23:25N 48°23' W 004°29'0 0.0
2019-Oct-14 22:55N 48°23' W 004°29'0 0.0
2019-Oct-14 22:28N 48°23' W 004°29'0 0.0
2019-Oct-14 21:58N 48°23' W 004°29'0 0.0
2019-Oct-14 21:28N 48°23' W 004°29'0 0.0
2019-Oct-14 20:58N 48°23' W 004°29'0 0.0
2019-Oct-14 20:28N 48°23' W 004°29'0 0.0
2019-Oct-14 19:58N 48°23' W 004°29'0 0.0
2019-Oct-14 19:28N 48°23' W 004°29'0 0.0
2019-Oct-14 18:58N 48°23' W 004°29'0 0.0
2019-Oct-14 18:28N 48°23' W 004°29'0 0.0
2019-Oct-14 17:58N 48°23' W 004°29'0 0.0
2019-Oct-14 17:28N 48°23' W 004°29'0 0.0
2019-Oct-14 16:58N 48°23' W 004°29'0 0.0
2019-Oct-14 16:28N 48°23' W 004°29'0 0.0
2019-Oct-14 15:58N 48°23' W 004°29'0 0.0
2019-Oct-14 15:28N 48°23' W 004°29'0 0.0
2019-Oct-14 14:58N 48°23' W 004°29'0 0.0
2019-Oct-14 14:28N 48°23' W 004°29'0 0.0
2019-Oct-14 13:58N 48°23' W 004°29'0 0.0
2019-Oct-14 13:28N 48°23' W 004°29'0 0.0
2019-Oct-14 12:58N 48°23' W 004°29'0 0.0
2019-Oct-14 12:30N 48°23' W 004°29'1 1.8
2019-Oct-14 12:00N 48°22' W 004°29'1 2.9
2019-Oct-14 11:30N 48°20' W 004°29'1 2.5
2019-Oct-14 11:00N 48°19' W 004°29'2 3.2
2019-Oct-14 10:30N 48°19' W 004°26'1 2.7
2019-Oct-14 10:00N 48°18' W 004°24'2 3.3
2019-Oct-14 09:30N 48°18' W 004°22'2 3.7
2019-Oct-14 09:00N 48°19' W 004°19'2 4.2
2019-Oct-14 08:30N 48°18' W 004°16'1 2.6
2019-Oct-14 08:00N 48°17' W 004°16'0 0.0
2019-Oct-14 07:29N 48°17' W 004°16'0 0.0
2019-Oct-14 06:59N 48°17' W 004°16'0 0.0
2019-Oct-14 06:29N 48°17' W 004°16'0 0.0
2019-Oct-14 05:59N 48°17' W 004°16'0 0.0
2019-Oct-14 05:29N 48°17' W 004°16'0 0.0
2019-Oct-14 04:59N 48°17' W 004°16'0 0.0
2019-Oct-14 04:29N 48°17' W 004°16'0 0.0
2019-Oct-14 03:59N 48°17' W 004°16'0 0.0
2019-Oct-14 03:29N 48°17' W 004°16'0 0.0
2019-Oct-14 02:59N 48°17' W 004°16'0 0.0
2019-Oct-14 02:29N 48°17' W 004°16'0 0.0
2019-Oct-14 01:56N 48°17' W 004°16'0 0.0
2019-Oct-14 01:29N 48°17' W 004°16'0 0.0
2019-Oct-14 00:53N 48°17' W 004°16'0 0.0
2019-Oct-14 00:29N 48°17' W 004°16'0 0.0
2019-Oct-13 23:59N 48°17' W 004°16'0 0.0
2019-Oct-13 23:29N 48°17' W 004°16'0 0.0
2019-Oct-13 22:59N 48°17' W 004°16'0 0.0
2019-Oct-13 22:26N 48°17' W 004°16'0 0.0
2019-Oct-13 21:59N 48°17' W 004°16'0 0.0
2019-Oct-13 21:29N 48°17' W 004°16'0 0.0
2019-Oct-13 20:53N 48°17' W 004°16'0 0.0
2019-Oct-13 20:26N 48°17' W 004°16'0 0.0
2019-Oct-13 19:56N 48°17' W 004°16'0 0.0
2019-Oct-13 19:29N 48°17' W 004°16'0 0.0
2019-Oct-13 18:59N 48°17' W 004°16'0 0.0
2019-Oct-13 18:29N 48°17' W 004°16'0 0.0
2019-Oct-13 17:59N 48°17' W 004°16'0 0.0
2019-Oct-13 17:29N 48°17' W 004°16'0 0.0
2019-Oct-13 16:59N 48°17' W 004°16'0 0.0
2019-Oct-13 16:29N 48°17' W 004°16'0 0.0
2019-Oct-13 15:59N 48°17' W 004°16'0 0.0
2019-Oct-13 15:29N 48°17' W 004°16'0 0.0
2019-Oct-13 14:59N 48°17' W 004°16'0 0.0
2019-Oct-13 14:29N 48°17' W 004°16'0 0.1
2019-Oct-13 14:00N 48°17' W 004°16'1 2.3
2019-Oct-13 13:30N 48°18' W 004°16'3 5.4
2019-Oct-13 13:00N 48°19' W 004°20'3 5.1
2019-Oct-13 12:30N 48°18' W 004°23'3 5.1
2019-Oct-13 12:00N 48°19' W 004°27'3 5.9
2019-Oct-13 11:30N 48°20' W 004°31'3 6.3
2019-Oct-13 11:00N 48°19' W 004°35'3 5.9
2019-Oct-13 10:30N 48°17' W 004°38'3 5.6
2019-Oct-13 10:00N 48°15' W 004°41'2 4.7
2019-Oct-13 09:30N 48°13' W 004°43'2 4.3
2019-Oct-13 09:00N 48°11' W 004°43'3 5.0
2019-Oct-13 08:30N 48°09' W 004°42'3 6.0
2019-Oct-13 08:00N 48°06' W 004°40'2 3.2
2019-Oct-13 07:29N 48°04' W 004°40'0 0.0
2019-Oct-13 06:59N 48°04' W 004°40'0 0.0
2019-Oct-13 06:29N 48°04' W 004°40'0 0.0
2019-Oct-13 05:56N 48°04' W 004°40'0 0.0
2019-Oct-13 05:26N 48°04' W 004°40'0 0.0
2019-Oct-13 04:59N 48°04' W 004°40'0 0.1
2019-Oct-13 04:29N 48°04' W 004°40'0 0.1
2019-Oct-13 03:59N 48°04' W 004°40'0 0.0
2019-Oct-13 03:29N 48°04' W 004°40'0 0.0
2019-Oct-13 02:59N 48°04' W 004°40'0 0.0
2019-Oct-13 02:29N 48°04' W 004°40'0 0.0
2019-Oct-13 01:59N 48°04' W 004°40'0 0.0
2019-Oct-13 01:29N 48°04' W 004°40'0 0.0
2019-Oct-13 00:59N 48°04' W 004°40'0 0.0
2019-Oct-13 00:29N 48°04' W 004°40'0 0.0
2019-Oct-12 23:59N 48°04' W 004°40'0 0.0
2019-Oct-12 23:29N 48°04' W 004°40'  
Track history (hours):
 
Tides and Currents Weather Stations Pressure Air Temp Water Temp Dewpoint Dewpoint Depression Visibility Wind Speed Wind Dir Waves Ship Positions

Eye Of The Wind

Last reported at 2019-Oct-22 23:27 UTC. Time now 2019-Oct-22 23:36 UTC.
Position N 38°13' W 009°15'.

Length 33 m; draft 2.8 m.

Type: Sailing vessel. MMSI: 233789000.

Date/timePositionNaut miles runAvg speedWind from/ knotsBaromVisibWave heightAir tempDewpointWater temp
2019-Oct-22 23:27N 38°13' W 009°15'4 6.5
2019-Oct-22 22:53N 38°16' W 009°17'3 6.1
2019-Oct-22 22:28N 38°18' W 009°18'3 6.6
2019-Oct-22 22:00N 38°21' W 009°20'3 6.5
2019-Oct-22 21:30N 38°24' W 009°22'3 6.6
2019-Oct-22 21:00N 38°27' W 009°23'3 6.1
2019-Oct-22 20:30N 38°30' W 009°25'3 5.9
2019-Oct-22 20:00N 38°32' W 009°27'3 5.6
2019-Oct-22 19:30N 38°35' W 009°29'3 6.3
2019-Oct-22 19:01N 38°38' W 009°30'4 7.3
2019-Oct-22 18:30N 38°41' W 009°32'3 7.0
2019-Oct-22 18:01N 38°45' W 009°33'3 6.4
2019-Oct-22 17:31N 38°48' W 009°33'3 6.5
2019-Oct-22 17:00N 38°51' W 009°33'3 6.6
2019-Oct-22 16:30N 38°54' W 009°33'3 6.4
2019-Oct-22 16:01N 38°57' W 009°32'3 6.4
2019-Oct-22 15:31N 39°01' W 009°31'4 6.0
2019-Oct-22 14:54N 39°04' W 009°31'3 6.5
2019-Oct-22 14:30N 39°07' W 009°30'3 5.6
2019-Oct-22 14:00N 39°09' W 009°28'3 5.7
2019-Oct-22 13:29N 39°12' W 009°27'  
2019-Oct-16 13:11N 47°57' W 005°16'3 5.5
2019-Oct-16 12:42N 47°59' W 005°13'1 5.4
2019-Oct-16 12:30N 48°00' W 005°13'3 5.4
2019-Oct-16 12:00N 48°02' W 005°11'3 5.8
2019-Oct-16 11:30N 48°05' W 005°08'3 6.4
2019-Oct-16 11:00N 48°06' W 005°04'3 6.5
2019-Oct-16 10:31N 48°08' W 004°60'3 6.7
2019-Oct-16 10:00N 48°10' W 004°55'3 6.9
2019-Oct-16 09:31N 48°12' W 004°51'4 7.2
2019-Oct-16 09:00N 48°14' W 004°47'4 7.4
2019-Oct-16 08:31N 48°17' W 004°44'4 7.6
2019-Oct-16 08:01N 48°19' W 004°39'4 7.5
2019-Oct-16 07:30N 48°21' W 004°34'3 6.8
2019-Oct-16 07:00N 48°23' W 004°30'0 0.4
2019-Oct-16 06:28N 48°23' W 004°29'0 0.0
2019-Oct-16 05:58N 48°23' W 004°29'0 0.0
2019-Oct-16 05:28N 48°23' W 004°29'0 0.0
2019-Oct-16 04:58N 48°23' W 004°29'0 0.0
2019-Oct-16 04:28N 48°23' W 004°29'0 0.0
2019-Oct-16 03:58N 48°23' W 004°29'0 0.0
2019-Oct-16 03:28N 48°23' W 004°29'0 0.0
2019-Oct-16 02:58N 48°23' W 004°29'0 0.0
2019-Oct-16 02:28N 48°23' W 004°29'0 0.0
2019-Oct-16 01:58N 48°23' W 004°29'0 0.0
2019-Oct-16 01:28N 48°23' W 004°29'0 0.0
2019-Oct-16 00:58N 48°23' W 004°29'0 0.0
2019-Oct-16 00:28N 48°23' W 004°29'0 0.0
2019-Oct-15 23:58N 48°23' W 004°29'0 0.0
2019-Oct-15 23:28N 48°23' W 004°29'0 0.0
2019-Oct-15 22:58N 48°23' W 004°29'0 0.0
2019-Oct-15 22:28N 48°23' W 004°29'0 0.0
2019-Oct-15 21:58N 48°23' W 004°29'0 0.0
2019-Oct-15 21:28N 48°23' W 004°29'0 0.0
2019-Oct-15 20:58N 48°23' W 004°29'0 0.0
2019-Oct-15 20:28N 48°23' W 004°29'0 0.0
2019-Oct-15 19:58N 48°23' W 004°29'0 0.0
2019-Oct-15 19:28N 48°23' W 004°29'0 0.0
2019-Oct-15 18:58N 48°23' W 004°29'0 0.0
2019-Oct-15 18:28N 48°23' W 004°29'0 0.0
2019-Oct-15 17:58N 48°23' W 004°29'0 0.0
2019-Oct-15 17:28N 48°23' W 004°29'0 0.0
2019-Oct-15 16:58N 48°23' W 004°29'0 0.0
2019-Oct-15 16:28N 48°23' W 004°29'0 0.0
2019-Oct-15 15:58N 48°23' W 004°29'0 0.0
2019-Oct-15 15:28N 48°23' W 004°29'0 0.0
2019-Oct-15 14:58N 48°23' W 004°29'0 0.0
2019-Oct-15 14:28N 48°23' W 004°29'0 0.0
2019-Oct-15 13:58N 48°23' W 004°29'0 0.0
2019-Oct-15 13:28N 48°23' W 004°29'0 0.0
2019-Oct-15 12:58N 48°23' W 004°29'0 0.0
2019-Oct-15 12:28N 48°23' W 004°29'0 0.0
2019-Oct-15 11:58N 48°23' W 004°29'0 0.0
2019-Oct-15 11:28N 48°23' W 004°29'0 0.0
2019-Oct-15 10:58N 48°23' W 004°29'0 0.0
2019-Oct-15 10:28N 48°23' W 004°29'0 0.0
2019-Oct-15 09:58N 48°23' W 004°29'0 0.0
2019-Oct-15 09:28N 48°23' W 004°29'0 0.0
2019-Oct-15 08:58N 48°23' W 004°29'0 0.0
2019-Oct-15 08:28N 48°23' W 004°29'0 0.0
2019-Oct-15 07:58N 48°23' W 004°29'0 0.0
2019-Oct-15 07:28N 48°23' W 004°29'0 0.0
2019-Oct-15 06:58N 48°23' W 004°29'0 0.0
2019-Oct-15 06:28N 48°23' W 004°29'0 0.0
2019-Oct-15 05:58N 48°23' W 004°29'0 0.0
2019-Oct-15 05:28N 48°23' W 004°29'0 0.0
2019-Oct-15 04:58N 48°23' W 004°29'0 0.0
2019-Oct-15 04:28N 48°23' W 004°29'0 0.0
2019-Oct-15 03:58N 48°23' W 004°29'0 0.0
2019-Oct-15 03:28N 48°23' W 004°29'0 0.0
2019-Oct-15 02:58N 48°23' W 004°29'0 0.0
2019-Oct-15 02:28N 48°23' W 004°29'0 0.0
2019-Oct-15 01:58N 48°23' W 004°29'0 0.0
2019-Oct-15 01:28N 48°23' W 004°29'0 0.0
2019-Oct-15 00:58N 48°23' W 004°29'0 0.0
2019-Oct-15 00:28N 48°23' W 004°29'0 0.0
2019-Oct-14 23:55N 48°23' W 004°29'0 0.0
2019-Oct-14 23:25N 48°23' W 004°29'0 0.0
2019-Oct-14 22:55N 48°23' W 004°29'0 0.0
2019-Oct-14 22:28N 48°23' W 004°29'0 0.0
2019-Oct-14 21:58N 48°23' W 004°29'0 0.0
2019-Oct-14 21:28N 48°23' W 004°29'0 0.0
2019-Oct-14 20:58N 48°23' W 004°29'0 0.0
2019-Oct-14 20:28N 48°23' W 004°29'0 0.0
2019-Oct-14 19:58N 48°23' W 004°29'0 0.0
2019-Oct-14 19:28N 48°23' W 004°29'0 0.0
2019-Oct-14 18:58N 48°23' W 004°29'0 0.0
2019-Oct-14 18:28N 48°23' W 004°29'0 0.0
2019-Oct-14 17:58N 48°23' W 004°29'0 0.0
2019-Oct-14 17:28N 48°23' W 004°29'0 0.0
2019-Oct-14 16:58N 48°23' W 004°29'0 0.0
2019-Oct-14 16:28N 48°23' W 004°29'0 0.0
2019-Oct-14 15:58N 48°23' W 004°29'0 0.0
2019-Oct-14 15:28N 48°23' W 004°29'0 0.0
2019-Oct-14 14:58N 48°23' W 004°29'0 0.0
2019-Oct-14 14:28N 48°23' W 004°29'0 0.0
2019-Oct-14 13:58N 48°23' W 004°29'0 0.0
2019-Oct-14 13:28N 48°23' W 004°29'0 0.0
2019-Oct-14 12:58N 48°23' W 004°29'0 0.0
2019-Oct-14 12:30N 48°23' W 004°29'1 1.8
2019-Oct-14 12:00N 48°22' W 004°29'1 2.9
2019-Oct-14 11:30N 48°20' W 004°29'1 2.5
2019-Oct-14 11:00N 48°19' W 004°29'2 3.2
2019-Oct-14 10:30N 48°19' W 004°26'1 2.7
2019-Oct-14 10:00N 48°18' W 004°24'2 3.3
2019-Oct-14 09:30N 48°18' W 004°22'2 3.7
2019-Oct-14 09:00N 48°19' W 004°19'2 4.2
2019-Oct-14 08:30N 48°18' W 004°16'1 2.6
2019-Oct-14 08:00N 48°17' W 004°16'0 0.0
2019-Oct-14 07:29N 48°17' W 004°16'0 0.0
2019-Oct-14 06:59N 48°17' W 004°16'0 0.0
2019-Oct-14 06:29N 48°17' W 004°16'0 0.0
2019-Oct-14 05:59N 48°17' W 004°16'0 0.0
2019-Oct-14 05:29N 48°17' W 004°16'0 0.0
2019-Oct-14 04:59N 48°17' W 004°16'0 0.0
2019-Oct-14 04:29N 48°17' W 004°16'0 0.0
2019-Oct-14 03:59N 48°17' W 004°16'0 0.0
2019-Oct-14 03:29N 48°17' W 004°16'0 0.0
2019-Oct-14 02:59N 48°17' W 004°16'0 0.0
2019-Oct-14 02:29N 48°17' W 004°16'0 0.0
2019-Oct-14 01:56N 48°17' W 004°16'0 0.0
2019-Oct-14 01:29N 48°17' W 004°16'0 0.0
2019-Oct-14 00:53N 48°17' W 004°16'0 0.0
2019-Oct-14 00:29N 48°17' W 004°16'0 0.0
2019-Oct-13 23:59N 48°17' W 004°16'0 0.0
2019-Oct-13 23:29N 48°17' W 004°16'0 0.0
2019-Oct-13 22:59N 48°17' W 004°16'0 0.0
2019-Oct-13 22:26N 48°17' W 004°16'0 0.0
2019-Oct-13 21:59N 48°17' W 004°16'0 0.0
2019-Oct-13 21:29N 48°17' W 004°16'0 0.0
2019-Oct-13 20:53N 48°17' W 004°16'0 0.0
2019-Oct-13 20:26N 48°17' W 004°16'0 0.0
2019-Oct-13 19:56N 48°17' W 004°16'0 0.0
2019-Oct-13 19:29N 48°17' W 004°16'0 0.0
2019-Oct-13 18:59N 48°17' W 004°16'0 0.0
2019-Oct-13 18:29N 48°17' W 004°16'0 0.0
2019-Oct-13 17:59N 48°17' W 004°16'0 0.0
2019-Oct-13 17:29N 48°17' W 004°16'0 0.0
2019-Oct-13 16:59N 48°17' W 004°16'0 0.0
2019-Oct-13 16:29N 48°17' W 004°16'0 0.0
2019-Oct-13 15:59N 48°17' W 004°16'0 0.0
2019-Oct-13 15:29N 48°17' W 004°16'0 0.0
2019-Oct-13 14:59N 48°17' W 004°16'0 0.0
2019-Oct-13 14:29N 48°17' W 004°16'0 0.1
2019-Oct-13 14:00N 48°17' W 004°16'1 2.3
2019-Oct-13 13:30N 48°18' W 004°16'3 5.4
2019-Oct-13 13:00N 48°19' W 004°20'3 5.1
2019-Oct-13 12:30N 48°18' W 004°23'3 5.1
2019-Oct-13 12:00N 48°19' W 004°27'3 5.9
2019-Oct-13 11:30N 48°20' W 004°31'3 6.3
2019-Oct-13 11:00N 48°19' W 004°35'3 5.9
2019-Oct-13 10:30N 48°17' W 004°38'3 5.6
2019-Oct-13 10:00N 48°15' W 004°41'2 4.7
2019-Oct-13 09:30N 48°13' W 004°43'2 4.3
2019-Oct-13 09:00N 48°11' W 004°43'3 5.0
2019-Oct-13 08:30N 48°09' W 004°42'3 6.0
2019-Oct-13 08:00N 48°06' W 004°40'2 3.2
2019-Oct-13 07:29N 48°04' W 004°40'0 0.0
2019-Oct-13 06:59N 48°04' W 004°40'0 0.0
2019-Oct-13 06:29N 48°04' W 004°40'0 0.0
2019-Oct-13 05:56N 48°04' W 004°40'0 0.0
2019-Oct-13 05:26N 48°04' W 004°40'0 0.0
2019-Oct-13 04:59N 48°04' W 004°40'0 0.1
2019-Oct-13 04:29N 48°04' W 004°40'0 0.1
2019-Oct-13 03:59N 48°04' W 004°40'0 0.0
2019-Oct-13 03:29N 48°04' W 004°40'0 0.0
2019-Oct-13 02:59N 48°04' W 004°40'0 0.0
2019-Oct-13 02:29N 48°04' W 004°40'0 0.0
2019-Oct-13 01:59N 48°04' W 004°40'0 0.0
2019-Oct-13 01:29N 48°04' W 004°40'0 0.0
2019-Oct-13 00:59N 48°04' W 004°40'0 0.0
2019-Oct-13 00:29N 48°04' W 004°40'0 0.0
2019-Oct-12 23:59N 48°04' W 004°40'0 0.0
2019-Oct-12 23:29N 48°04' W 004°40'  

Dump ship's entire track history